Witherbee, New York
Current Conditions -  °F | °C
As of 1:15 AM on Sunday 21 Dec 2014 (Local Time) from K6B0 Reporting Station
Overcast Overcast  
Wind Chill: 18°   Ceiling: 3700
Heat Index: 18°   Visibility: 10mi
Dew Point: 18°   Wind: 0mph
Humidity: 100%   Direction: NA
Pressure: 30.3"   Gusts: NA
Location:  44.09°N, 73.53°W
Report Text: K6B0 210615Z AUTO 00000KT 10SM OVC037 M08/M08 A3030 RMK AO2 T10801080
Loading
Personal Weather Stations






























Interactive Weather Map New forecast layout! Learn more

10-Day Weather Forecast

Advertisements
Track Severe Weather on mobile